createdAt,value
2019-01-17T00:00:12.957Z,14.68
2019-01-17T00:03:00.071Z,14.50
2019-01-17T00:05:38.676Z,13.60
2019-01-17T00:08:25.672Z,14.43
2019-01-17T00:11:00.622Z,15.15
2019-01-17T00:13:47.432Z,12.75
2019-01-17T00:16:50.542Z,14.18
2019-01-17T00:19:53.670Z,14.83
2019-01-17T00:22:43.036Z,12.63
2019-01-17T00:25:31.493Z,16.12
2019-01-17T00:28:18.134Z,15.63
2019-01-17T00:30:58.026Z,14.03
2019-01-17T00:33:54.118Z,11.48
2019-01-17T00:36:46.964Z,12.00
2019-01-17T00:39:53.083Z,11.97
2019-01-17T00:42:44.077Z,11.60
2019-01-17T00:45:30.705Z,9.48
2019-01-17T00:48:24.944Z,10.98
2019-01-17T00:51:12.031Z,9.90
2019-01-17T00:54:00.103Z,11.40
2019-01-17T00:57:00.053Z,13.75
2019-01-17T00:59:47.193Z,10.53
2019-01-17T01:02:25.380Z,10.03
2019-01-17T01:05:24.256Z,11.63
2019-01-17T01:08:11.985Z,9.48
2019-01-17T01:10:58.042Z,9.78
2019-01-17T01:13:52.368Z,10.38
2019-01-17T01:16:42.756Z,12.07
2019-01-17T01:19:19.713Z,12.40
2019-01-17T01:22:06.404Z,11.57
2019-01-17T01:24:53.659Z,11.68
2019-01-17T01:27:44.612Z,11.90
2019-01-17T01:30:32.771Z,13.83
2019-01-17T01:33:16.564Z,13.70
2019-01-17T01:36:13.703Z,12.67
2019-01-17T01:41:54.360Z,14.07
2019-01-17T01:44:42.403Z,14.67
2019-01-17T01:47:33.535Z,12.58
2019-01-17T01:50:36.533Z,12.30
2019-01-17T01:53:05.235Z,13.53
2019-01-17T01:55:35.316Z,12.98
2019-01-17T01:58:05.478Z,13.72
2019-01-17T02:00:34.560Z,12.33
2019-01-17T02:03:03.520Z,11.57
2019-01-17T02:05:32.412Z,12.58
2019-01-17T02:08:01.168Z,12.85
2019-01-17T02:10:30.300Z,10.82
2019-01-17T02:12:59.692Z,10.08
2019-01-17T02:15:28.589Z,12.47
2019-01-17T02:17:57.397Z,10.88
2019-01-17T02:20:26.328Z,10.58
2019-01-17T02:22:55.251Z,11.15
2019-01-17T02:25:24.283Z,11.97
2019-01-17T02:27:53.255Z,11.18
2019-01-17T02:30:22.030Z,10.65
2019-01-17T02:32:51.098Z,11.38
2019-01-17T02:35:19.856Z,11.78
2019-01-17T02:37:48.695Z,10.28
2019-01-17T02:40:17.647Z,11.30
2019-01-17T02:42:46.852Z,10.85
2019-01-17T02:45:15.892Z,11.33
2019-01-17T02:47:44.917Z,10.72
2019-01-17T02:50:13.999Z,10.23
2019-01-17T02:52:42.878Z,10.80
2019-01-17T02:55:11.724Z,11.35
2019-01-17T02:57:40.584Z,10.30
2019-01-17T03:00:13.062Z,9.80
2019-01-17T03:02:41.841Z,10.58
2019-01-17T03:05:11.049Z,8.43
2019-01-17T03:07:39.953Z,9.23
2019-01-17T03:10:12.615Z,8.20
2019-01-17T03:12:41.496Z,9.88
2019-01-17T03:15:10.650Z,10.30
2019-01-17T03:17:40.048Z,9.35
2019-01-17T03:20:09.977Z,9.50
2019-01-17T03:22:38.859Z,8.18
2019-01-17T03:25:08.365Z,7.55
2019-01-17T03:27:37.782Z,8.23
2019-01-17T03:30:11.184Z,7.40
2019-01-17T03:32:40.041Z,8.53
2019-01-17T03:35:09.557Z,6.83
2019-01-17T03:37:38.484Z,8.50
2019-01-17T03:40:09.475Z,6.60
2019-01-17T03:42:38.658Z,6.97
2019-01-17T03:45:08.388Z,6.92
2019-01-17T03:47:37.262Z,6.50
2019-01-17T03:50:08.163Z,6.47
2019-01-17T03:52:37.302Z,6.28
2019-01-17T03:55:07.382Z,5.85
2019-01-17T03:57:36.259Z,6.67
2019-01-17T04:00:07.364Z,6.00
2019-01-17T04:02:36.209Z,5.90
2019-01-17T04:05:06.184Z,5.40
2019-01-17T04:07:35.218Z,5.80
2019-01-17T04:10:05.475Z,4.85
2019-01-17T04:12:34.583Z,4.97
2019-01-17T04:15:03.644Z,5.00
2019-01-17T04:17:32.545Z,5.10
2019-01-17T04:20:01.650Z,5.30
2019-01-17T04:22:30.421Z,5.37
2019-01-17T04:24:59.526Z,5.12
2019-01-17T04:27:28.369Z,5.37
2019-01-17T04:29:57.239Z,5.00
2019-01-17T04:32:26.184Z,5.45
2019-01-17T04:34:56.010Z,5.70
2019-01-17T04:37:25.421Z,5.42
2019-01-17T04:39:54.296Z,5.87
2019-01-17T04:42:23.156Z,6.08
2019-01-17T04:44:52.050Z,5.75
2019-01-17T04:47:20.796Z,5.95
2019-01-17T04:49:49.595Z,6.22
2019-01-17T04:52:18.423Z,6.40
2019-01-17T04:54:47.544Z,7.97
2019-01-17T04:57:16.622Z,6.30
2019-01-17T04:59:45.565Z,6.10
2019-01-17T05:02:14.415Z,6.75
2019-01-17T05:04:43.605Z,6.83
2019-01-17T05:07:12.447Z,7.33
2019-01-17T05:09:41.354Z,7.85
2019-01-17T05:12:10.260Z,7.05
2019-01-17T05:14:39.005Z,6.83
2019-01-17T05:17:08.062Z,7.17
2019-01-17T05:19:36.988Z,7.40
2019-01-17T05:22:06.341Z,6.85
2019-01-17T05:24:35.652Z,7.05
2019-01-17T05:27:04.817Z,7.25
2019-01-17T05:29:33.628Z,7.80
2019-01-17T05:32:02.650Z,9.50
2019-01-17T05:34:31.417Z,7.25
2019-01-17T05:37:00.297Z,9.10
2019-01-17T05:39:29.297Z,7.08
2019-01-17T05:41:58.098Z,8.45
2019-01-17T05:44:27.012Z,7.97
2019-01-17T05:46:56.024Z,8.05
2019-01-17T05:49:25.310Z,8.13
2019-01-17T05:51:54.338Z,9.65
2019-01-17T05:54:23.365Z,9.28
2019-01-17T05:56:52.179Z,7.87
2019-01-17T05:59:20.997Z,8.28
2019-01-17T06:01:49.824Z,9.18
2019-01-17T06:04:18.688Z,7.58
2019-01-17T06:06:47.944Z,8.35
2019-01-17T06:09:16.891Z,9.03
2019-01-17T06:11:45.783Z,8.53
2019-01-17T06:14:14.626Z,7.60
2019-01-17T06:16:43.528Z,8.93
2019-01-17T06:19:12.735Z,9.50
2019-01-17T06:21:41.765Z,9.33
2019-01-17T06:24:10.587Z,10.15
2019-01-17T06:26:39.337Z,9.73
2019-01-17T06:29:08.123Z,9.77
2019-01-17T06:31:37.148Z,9.15
2019-01-17T06:34:06.082Z,12.37
2019-01-17T06:36:35.100Z,10.50
2019-01-17T06:39:06.243Z,9.73
2019-01-17T06:41:35.252Z,9.43
2019-01-17T06:44:04.230Z,10.03
2019-01-17T06:46:33.340Z,10.03
2019-01-17T06:49:02.727Z,11.03
2019-01-17T06:51:31.729Z,9.90
2019-01-17T06:54:00.582Z,13.22
2019-01-17T06:56:29.403Z,12.75
2019-01-17T06:58:58.315Z,12.75
2019-01-17T07:01:27.266Z,12.35
2019-01-17T07:03:56.241Z,11.63
2019-01-17T07:06:25.798Z,13.78
2019-01-17T07:08:54.859Z,12.43
2019-01-17T07:11:23.688Z,15.70
2019-01-17T07:13:52.578Z,12.53
2019-01-17T07:16:21.465Z,12.37
2019-01-17T07:18:50.201Z,12.30
2019-01-17T07:21:19.157Z,10.17
2019-01-17T07:23:48.073Z,11.70
2019-01-17T07:26:17.024Z,12.63
2019-01-17T07:28:46.302Z,12.43
2019-01-17T07:31:15.492Z,11.28
2019-01-17T07:33:44.426Z,12.53
2019-01-17T07:36:13.364Z,11.60
2019-01-17T07:38:42.133Z,11.95
2019-01-17T07:41:10.924Z,11.28
2019-01-17T07:43:39.680Z,12.63
2019-01-17T07:46:08.528Z,12.03
2019-01-17T07:48:37.326Z,11.60
2019-01-17T07:51:06.386Z,13.62
2019-01-17T07:53:35.395Z,15.60
2019-01-17T07:56:04.838Z,14.57
2019-01-17T07:58:33.736Z,14.40
2019-01-17T08:01:02.740Z,13.80
2019-01-17T08:03:32.867Z,12.47
2019-01-17T08:06:01.769Z,13.68
2019-01-17T08:08:30.996Z,12.58
2019-01-17T08:10:59.779Z,12.23
2019-01-17T08:13:28.624Z,11.08
2019-01-17T08:15:58.036Z,9.85
2019-01-17T08:18:27.242Z,9.10
2019-01-17T08:20:56.011Z,9.50
2019-01-17T08:23:25.047Z,10.68
2019-01-17T08:25:54.469Z,10.03
2019-01-17T08:28:23.683Z,8.87
2019-01-17T08:30:52.703Z,9.28
2019-01-17T08:33:21.494Z,9.48
2019-01-17T08:35:50.264Z,8.23
2019-01-17T08:38:19.268Z,10.00
2019-01-17T08:40:48.087Z,9.28
2019-01-17T08:43:17.197Z,9.50
2019-01-17T08:45:46.285Z,9.93
2019-01-17T08:48:15.149Z,9.13
2019-01-17T08:50:44.208Z,9.98
2019-01-17T08:53:13.268Z,9.05
2019-01-17T08:55:42.052Z,9.43
2019-01-17T08:58:10.768Z,9.63
2019-01-17T09:00:39.586Z,9.18
2019-01-17T09:03:08.377Z,11.03
2019-01-17T09:05:37.471Z,10.25
2019-01-17T09:08:06.501Z,10.97
2019-01-17T09:10:35.439Z,11.55
2019-01-17T09:13:04.634Z,9.73
2019-01-17T09:15:35.287Z,10.23
2019-01-17T09:18:04.325Z,12.10
2019-01-17T09:20:33.265Z,11.08
2019-01-17T09:23:02.168Z,12.15
2019-01-17T09:25:31.488Z,10.53
2019-01-17T09:28:00.593Z,10.65
2019-01-17T09:30:29.560Z,11.70
2019-01-17T09:32:58.324Z,10.03
2019-01-17T09:35:27.321Z,9.78
2019-01-17T09:37:56.303Z,9.55
2019-01-17T09:40:25.307Z,8.20
2019-01-17T09:42:54.300Z,7.67
2019-01-17T09:45:23.650Z,6.30
2019-01-17T09:47:52.594Z,6.50
2019-01-17T09:50:23.356Z,4.92
2019-01-17T09:52:52.657Z,4.10
2019-01-17T09:55:21.586Z,4.62
2019-01-17T09:57:50.604Z,3.70
2019-01-17T10:00:22.213Z,3.27
2019-01-17T10:02:51.252Z,2.85
2019-01-17T10:05:20.055Z,2.70
2019-01-17T10:07:49.023Z,2.33
2019-01-17T10:10:18.566Z,2.40
2019-01-17T10:12:47.787Z,2.05
2019-01-17T10:15:32.765Z,2.20
2019-01-17T10:18:39.317Z,2.20
2019-01-17T10:21:37.091Z,2.00
2019-01-17T10:24:56.202Z,1.67
2019-01-17T10:28:09.955Z,1.60
2019-01-17T10:31:25.038Z,1.30
2019-01-17T10:34:47.453Z,1.62
2019-01-17T10:37:38.684Z,2.00
2019-01-17T10:40:55.217Z,1.30
2019-01-17T10:43:57.401Z,1.00
2019-01-17T10:46:57.520Z,1.30
2019-01-17T10:49:52.281Z,1.22
2019-01-17T10:52:52.370Z,0.93
2019-01-17T10:55:45.106Z,0.60
2019-01-17T10:58:58.188Z,0.80
2019-01-17T11:02:05.851Z,1.10
2019-01-17T11:04:58.599Z,1.00
2019-01-17T11:07:39.847Z,1.65
2019-01-17T11:10:37.608Z,0.70
2019-01-17T11:14:03.098Z,0.90
2019-01-17T11:17:02.943Z,0.95
2019-01-17T11:19:57.722Z,0.70
2019-01-17T11:23:14.596Z,1.32
2019-01-17T11:26:19.149Z,1.20
2019-01-17T11:29:16.673Z,1.60
2019-01-17T11:32:21.797Z,1.00
2019-01-17T11:35:18.262Z,1.32
2019-01-17T11:38:03.008Z,1.55
2019-01-17T11:41:13.665Z,1.80
2019-01-17T11:44:20.328Z,2.58
2019-01-17T11:47:15.269Z,2.17
2019-01-17T11:50:25.997Z,1.87
2019-01-17T11:53:35.865Z,1.40
2019-01-17T11:56:40.998Z,1.62
2019-01-17T11:59:44.930Z,2.15
2019-01-17T12:02:30.212Z,2.55
2019-01-17T12:05:18.228Z,2.27
2019-01-17T12:07:47.232Z,2.12
2019-01-17T12:10:16.505Z,2.27
2019-01-17T12:12:46.217Z,2.55
2019-01-17T12:15:15.354Z,3.25
2019-01-17T12:17:44.497Z,2.62
2019-01-17T12:20:13.450Z,2.15
2019-01-17T12:22:42.286Z,2.42
2019-01-17T12:25:11.617Z,2.10
2019-01-17T12:27:42.613Z,3.30
2019-01-17T12:30:13.602Z,2.60
2019-01-17T12:32:42.457Z,3.10
2019-01-17T12:35:12.282Z,2.12
2019-01-17T12:37:41.357Z,2.27
2019-01-17T12:40:13.028Z,2.87
2019-01-17T12:42:42.153Z,2.33
2019-01-17T12:47:53.328Z,2.62
2019-01-17T12:50:22.188Z,3.00
2019-01-17T12:52:51.102Z,2.35
2019-01-17T12:55:19.993Z,3.22
2019-01-17T12:57:50.129Z,2.00
2019-01-17T13:00:20.646Z,2.60
2019-01-17T13:02:49.468Z,3.30
2019-01-17T13:05:18.480Z,2.42
2019-01-17T13:07:47.457Z,1.92
2019-01-17T13:10:16.432Z,2.12
2019-01-17T13:12:45.789Z,2.30
2019-01-17T13:15:15.349Z,2.90
2019-01-17T13:17:44.290Z,2.70
2019-01-17T13:20:15.740Z,2.52
2019-01-17T13:22:44.922Z,2.13
2019-01-17T13:25:16.770Z,3.33
2019-01-17T13:27:46.118Z,1.87
2019-01-17T13:30:17.652Z,2.72
2019-01-17T13:32:46.594Z,2.30
2019-01-17T13:35:16.270Z,1.92
2019-01-17T13:37:45.394Z,1.90
2019-01-17T13:40:36.408Z,1.85
2019-01-17T13:43:05.410Z,3.12
2019-01-17T13:45:34.770Z,3.50
2019-01-17T13:48:03.736Z,2.70
2019-01-17T13:50:32.535Z,2.52
2019-01-17T13:53:01.409Z,3.40
2019-01-17T13:55:30.144Z,2.80
2019-01-17T13:57:58.986Z,3.35
2019-01-17T14:00:28.111Z,2.08
2019-01-17T14:02:57.002Z,2.95
2019-01-17T14:05:25.928Z,3.58
2019-01-17T14:07:54.959Z,3.42
2019-01-17T14:10:23.849Z,2.98
2019-01-17T14:12:52.676Z,3.90
2019-01-17T14:15:25.099Z,2.75
2019-01-17T14:17:53.977Z,3.90
2019-01-17T14:20:22.988Z,3.30
2019-01-17T14:22:52.049Z,3.15
2019-01-17T14:25:21.208Z,5.28
2019-01-17T14:27:50.532Z,3.58
2019-01-17T14:30:22.677Z,4.33
2019-01-17T14:32:51.469Z,3.47
2019-01-17T14:35:20.290Z,3.12
2019-01-17T14:37:49.523Z,4.95
2019-01-17T14:40:18.516Z,3.72
2019-01-17T14:42:47.505Z,2.90
2019-01-17T14:45:18.038Z,3.80
2019-01-17T14:47:46.997Z,3.87
2019-01-17T14:50:18.695Z,3.80
2019-01-17T14:52:48.081Z,3.75
2019-01-17T14:55:17.305Z,3.20
2019-01-17T14:57:46.556Z,3.42
2019-01-17T15:00:17.772Z,3.60
2019-01-17T15:02:46.930Z,2.37
2019-01-17T15:05:16.132Z,2.22
2019-01-17T15:07:45.328Z,2.42
2019-01-17T15:10:17.187Z,2.52
2019-01-17T15:12:46.291Z,2.15
2019-01-17T15:15:15.773Z,2.20
2019-01-17T15:17:44.812Z,2.45
2019-01-17T15:20:16.548Z,5.62
2019-01-17T15:22:46.792Z,2.83
2019-01-17T15:25:15.757Z,2.58
2019-01-17T15:27:44.815Z,2.22
2019-01-17T15:30:19.288Z,1.80
2019-01-17T15:32:48.496Z,1.80
2019-01-17T15:35:18.900Z,1.60
2019-01-17T15:37:47.727Z,2.30
2019-01-17T15:40:19.165Z,1.50
2019-01-17T15:42:48.003Z,2.10
2019-01-17T15:45:16.984Z,2.00
2019-01-17T15:47:46.295Z,1.60
2019-01-17T15:50:15.429Z,1.80
2019-01-17T15:52:44.592Z,1.80
2019-01-17T15:55:15.086Z,1.60
2019-01-17T15:57:44.029Z,1.77
2019-01-17T16:00:16.726Z,1.90
2019-01-17T16:02:46.210Z,2.00
2019-01-17T16:05:15.993Z,1.70
2019-01-17T16:07:44.921Z,1.70
2019-01-17T16:10:17.488Z,1.90
2019-01-17T16:12:47.860Z,2.00
2019-01-17T16:15:19.136Z,1.90
2019-01-17T16:17:48.078Z,2.10
2019-01-17T16:20:17.114Z,2.05
2019-01-17T16:22:46.454Z,2.00
2019-01-17T16:25:15.953Z,2.02
2019-01-17T16:27:45.325Z,2.50
2019-01-17T16:30:28.523Z,2.52
2019-01-17T16:32:57.460Z,2.83
2019-01-17T16:35:26.641Z,2.62
2019-01-17T16:37:55.633Z,3.30
2019-01-17T16:40:45.227Z,2.58
2019-01-17T16:43:13.318Z,2.90
2019-01-17T16:45:42.135Z,2.70
2019-01-17T16:48:11.157Z,2.70
2019-01-17T16:50:39.987Z,2.60
2019-01-17T16:53:09.059Z,3.67
2019-01-17T16:55:37.932Z,3.08
2019-01-17T16:58:06.860Z,3.00
2019-01-17T17:00:41.426Z,3.08
2019-01-17T17:03:10.395Z,5.15
2019-01-17T17:05:39.324Z,3.22
2019-01-17T17:08:08.272Z,3.70
2019-01-17T17:10:37.347Z,4.17
2019-01-17T17:13:06.176Z,3.97
2019-01-17T17:15:35.125Z,3.33
2019-01-17T17:18:04.168Z,3.05
2019-01-17T17:20:33.161Z,3.55
2019-01-17T17:23:01.932Z,3.40
2019-01-17T17:25:30.678Z,4.08
2019-01-17T17:27:59.493Z,4.03
2019-01-17T17:30:28.630Z,3.45
2019-01-17T17:32:57.482Z,3.75
2019-01-17T17:35:26.845Z,3.42
2019-01-17T17:37:55.992Z,2.97
2019-01-17T17:40:27.274Z,3.35
2019-01-17T17:42:56.188Z,3.20
2019-01-17T17:45:25.150Z,3.80
2019-01-17T17:47:54.995Z,4.28
2019-01-17T17:50:24.821Z,4.55
2019-01-17T17:52:53.879Z,3.37
2019-01-17T17:55:22.737Z,3.43
2019-01-17T17:57:51.609Z,4.08
2019-01-17T18:00:28.660Z,3.25
2019-01-17T18:02:57.785Z,3.10
2019-01-17T18:05:27.024Z,4.42
2019-01-17T18:07:55.960Z,4.45
2019-01-17T18:10:24.868Z,3.83
2019-01-17T18:12:54.020Z,5.35
2019-01-17T18:15:23.088Z,5.73
2019-01-17T18:17:52.126Z,4.58
2019-01-17T18:20:21.042Z,4.05
2019-01-17T18:22:49.856Z,4.70
2019-01-17T18:25:19.002Z,4.97
2019-01-17T18:28:08.828Z,4.15
2019-01-17T18:30:37.981Z,5.37
2019-01-17T18:33:06.899Z,5.70
2019-01-17T18:35:35.804Z,4.87
2019-01-17T18:38:04.744Z,3.52
2019-01-17T18:40:33.564Z,5.25
2019-01-17T18:43:02.462Z,5.60
2019-01-17T18:45:31.193Z,4.12
2019-01-17T18:47:59.964Z,5.77
2019-01-17T18:50:30.318Z,5.03
2019-01-17T18:52:59.305Z,4.70
2019-01-17T18:55:28.243Z,4.10
2019-01-17T18:57:57.250Z,4.60
2019-01-17T19:00:28.652Z,5.50
2019-01-17T19:02:58.070Z,4.20
2019-01-17T19:05:27.180Z,6.58
2019-01-17T19:07:56.312Z,5.35
2019-01-17T19:10:26.324Z,4.72
2019-01-17T19:12:55.379Z,5.00
2019-01-17T19:15:32.303Z,4.03
2019-01-17T19:18:01.352Z,5.78
2019-01-17T19:20:30.343Z,4.50
2019-01-17T19:22:59.521Z,4.42
2019-01-17T19:25:28.430Z,5.72
2019-01-17T19:27:57.420Z,4.30
2019-01-17T19:30:28.097Z,5.45
2019-01-17T19:32:57.198Z,4.67
2019-01-17T19:35:26.274Z,5.67
2019-01-17T19:37:55.493Z,4.70
2019-01-17T19:40:26.353Z,3.60
2019-01-17T19:42:55.635Z,5.00
2019-01-17T19:45:24.888Z,5.40
2019-01-17T19:47:54.248Z,5.85
2019-01-17T19:50:25.848Z,5.50
2019-01-17T19:52:55.437Z,5.30
2019-01-17T19:55:25.033Z,4.78
2019-01-17T19:57:53.904Z,5.00
2019-01-17T20:00:23.409Z,6.10
2019-01-17T20:02:53.175Z,7.25
2019-01-17T20:05:22.745Z,5.55
2019-01-17T20:07:51.784Z,5.78
2019-01-17T20:10:23.543Z,6.25
2019-01-17T20:12:52.536Z,6.45
2019-01-17T20:15:21.545Z,6.30
2019-01-17T20:17:53.949Z,5.87
2019-01-17T20:20:23.211Z,7.22
2019-01-17T20:22:52.509Z,6.30
2019-01-17T20:25:21.815Z,5.80
2019-01-17T20:27:50.775Z,5.40
2019-01-17T20:30:21.693Z,5.35
2019-01-17T20:32:50.924Z,5.53
2019-01-17T20:35:19.781Z,6.28
2019-01-17T20:37:48.946Z,7.35
2019-01-17T20:40:20.070Z,6.53
2019-01-17T20:42:49.212Z,6.70
2019-01-17T20:45:18.227Z,7.25
2019-01-17T20:47:47.433Z,7.70
2019-01-17T20:50:18.990Z,6.95
2019-01-17T20:52:48.192Z,7.28
2019-01-17T20:55:17.045Z,7.87
2019-01-17T20:57:47.375Z,6.83
2019-01-17T21:00:31.157Z,8.30
2019-01-17T21:03:00.481Z,8.20
2019-01-17T21:05:29.394Z,7.92
2019-01-17T21:07:58.384Z,7.83
2019-01-17T21:10:27.429Z,7.83
2019-01-17T21:12:56.518Z,9.33
2019-01-17T21:15:25.833Z,8.68
2019-01-17T21:17:54.808Z,10.30
2019-01-17T21:20:23.648Z,7.37
2019-01-17T21:22:52.403Z,8.38
2019-01-17T21:25:21.352Z,8.20
2019-01-17T21:27:50.221Z,8.68
2019-01-17T21:30:21.241Z,8.63
2019-01-17T21:32:49.987Z,9.33
2019-01-17T21:35:18.927Z,8.27
2019-01-17T21:37:47.998Z,8.00
2019-01-17T21:40:18.448Z,7.30
2019-01-17T21:42:47.449Z,9.00
2019-01-17T21:45:17.474Z,10.48
2019-01-17T21:47:46.437Z,6.85
2019-01-17T21:50:21.468Z,10.50
2019-01-17T21:52:50.303Z,9.28
2019-01-17T21:55:19.241Z,7.00
2019-01-17T21:57:48.076Z,8.25
2019-01-17T22:00:19.615Z,9.55
2019-01-17T22:02:48.496Z,10.10
2019-01-17T22:05:17.443Z,10.28
2019-01-17T22:07:46.382Z,9.80
2019-01-17T22:10:15.749Z,8.98
2019-01-17T22:12:44.724Z,10.00
2019-01-17T22:15:19.822Z,10.23
2019-01-17T22:17:48.674Z,10.08
2019-01-17T22:20:18.020Z,8.63
2019-01-17T22:22:47.073Z,9.53
2019-01-17T22:25:16.824Z,9.50
2019-01-17T22:27:46.010Z,10.05
2019-01-17T22:30:17.428Z,8.38
2019-01-17T22:32:46.997Z,9.10
2019-01-17T22:35:16.446Z,9.03
2019-01-17T22:37:46.928Z,9.45
2019-01-17T22:40:16.147Z,8.88
2019-01-17T22:42:45.096Z,7.17
2019-01-17T22:45:19.657Z,10.23
2019-01-17T22:47:48.537Z,8.98
2019-01-17T22:50:17.966Z,8.13
2019-01-17T22:52:47.612Z,7.00
2019-01-17T22:55:16.557Z,5.87
2019-01-17T22:57:46.928Z,7.92
2019-01-17T23:00:45.675Z,8.63
2019-01-17T23:03:14.902Z,7.55
2019-01-17T23:05:44.162Z,6.42
2019-01-17T23:08:13.096Z,7.30
2019-01-17T23:10:42.150Z,8.13
2019-01-17T23:13:11.036Z,6.90
2019-01-17T23:15:40.036Z,8.25
2019-01-17T23:18:08.968Z,6.87
2019-01-17T23:20:38.192Z,5.85
2019-01-17T23:23:07.187Z,6.10
2019-01-17T23:25:36.154Z,7.85
2019-01-17T23:28:05.518Z,5.53
2019-01-17T23:30:34.479Z,6.22
2019-01-17T23:33:03.445Z,5.58
2019-01-17T23:35:32.556Z,5.80
2019-01-17T23:38:01.304Z,6.05
2019-01-17T23:40:30.445Z,5.92
2019-01-17T23:42:59.235Z,5.05
2019-01-17T23:45:28.253Z,5.42
2019-01-17T23:47:57.243Z,7.60
2019-01-17T23:50:26.213Z,5.55
2019-01-17T23:52:55.291Z,6.80
2019-01-17T23:55:24.414Z,7.10
2019-01-17T23:57:53.294Z,5.40
